sensor_id;sensor_type;location;lat;lon;timestamp;P1;durP1;ratioP1;P2;durP2;ratioP2
78426;SDS011;67722;50.204;8.570;2023-04-24T00:00:08;3.83;;;0.77;;
78426;SDS011;67722;50.204;8.570;2023-04-24T00:02:34;1.23;;;0.50;;
78426;SDS011;67722;50.204;8.570;2023-04-24T00:05:02;2.33;;;0.70;;
78426;SDS011;67722;50.204;8.570;2023-04-24T00:07:29;1.23;;;0.75;;
78426;SDS011;67722;50.204;8.570;2023-04-24T00:09:55;1.20;;;0.57;;
78426;SDS011;67722;50.204;8.570;2023-04-24T00:12:20;1.75;;;0.75;;
78426;SDS011;67722;50.204;8.570;2023-04-24T00:14:45;2.43;;;0.80;;
78426;SDS011;67722;50.204;8.570;2023-04-24T00:17:11;1.17;;;0.63;;
78426;SDS011;67722;50.204;8.570;2023-04-24T00:19:36;1.45;;;0.60;;
78426;SDS011;67722;50.204;8.570;2023-04-24T00:22:02;2.17;;;0.90;;
78426;SDS011;67722;50.204;8.570;2023-04-24T00:24:27;4.28;;;0.80;;
78426;SDS011;67722;50.204;8.570;2023-04-24T00:26:53;2.93;;;0.80;;
78426;SDS011;67722;50.204;8.570;2023-04-24T00:29:18;1.27;;;0.53;;
78426;SDS011;67722;50.204;8.570;2023-04-24T00:31:43;1.30;;;0.60;;
78426;SDS011;67722;50.204;8.570;2023-04-24T00:34:09;1.43;;;0.90;;
78426;SDS011;67722;50.204;8.570;2023-04-24T00:36:35;3.45;;;0.73;;
78426;SDS011;67722;50.204;8.570;2023-04-24T00:39:00;2.88;;;0.70;;
78426;SDS011;67722;50.204;8.570;2023-04-24T00:41:26;2.07;;;0.70;;
78426;SDS011;67722;50.204;8.570;2023-04-24T00:43:51;1.00;;;0.40;;
78426;SDS011;67722;50.204;8.570;2023-04-24T00:46:17;1.27;;;0.50;;
78426;SDS011;67722;50.204;8.570;2023-04-24T00:48:42;0.90;;;0.50;;
78426;SDS011;67722;50.204;8.570;2023-04-24T00:51:08;1.10;;;0.50;;
78426;SDS011;67722;50.204;8.570;2023-04-24T00:53:34;2.58;;;0.40;;
78426;SDS011;67722;50.204;8.570;2023-04-24T00:55:59;1.17;;;0.60;;
78426;SDS011;67722;50.204;8.570;2023-04-24T00:58:25;2.20;;;0.40;;
78426;SDS011;67722;50.204;8.570;2023-04-24T01:00:51;0.95;;;0.25;;
78426;SDS011;67722;50.204;8.570;2023-04-24T01:03:19;2.50;;;0.50;;
78426;SDS011;67722;50.204;8.570;2023-04-24T01:05:45;2.72;;;0.50;;
78426;SDS011;67722;50.204;8.570;2023-04-24T01:08:11;2.10;;;0.50;;
78426;SDS011;67722;50.204;8.570;2023-04-24T01:10:36;2.70;;;0.50;;
78426;SDS011;67722;50.204;8.570;2023-04-24T01:13:03;1.17;;;0.60;;
78426;SDS011;67722;50.204;8.570;2023-04-24T01:15:29;1.63;;;0.60;;
78426;SDS011;67722;50.204;8.570;2023-04-24T01:17:54;0.80;;;0.30;;
78426;SDS011;67722;50.204;8.570;2023-04-24T01:20:21;3.95;;;0.60;;
78426;SDS011;67722;50.204;8.570;2023-04-24T01:22:46;1.30;;;0.57;;
78426;SDS011;67722;50.204;8.570;2023-04-24T01:25:12;1.70;;;1.00;;
78426;SDS011;67722;50.204;8.570;2023-04-24T01:27:37;2.08;;;0.90;;
78426;SDS011;67722;50.204;8.570;2023-04-24T01:30:03;3.00;;;0.65;;
78426;SDS011;67722;50.204;8.570;2023-04-24T01:32:29;1.52;;;0.50;;
78426;SDS011;67722;50.204;8.570;2023-04-24T01:34:54;1.40;;;0.70;;
78426;SDS011;67722;50.204;8.570;2023-04-24T01:37:20;2.08;;;0.85;;
78426;SDS011;67722;50.204;8.570;2023-04-24T01:39:45;2.67;;;0.70;;
78426;SDS011;67722;50.204;8.570;2023-04-24T01:42:11;3.40;;;0.80;;
78426;SDS011;67722;50.204;8.570;2023-04-24T01:44:37;0.98;;;0.50;;
78426;SDS011;67722;50.204;8.570;2023-04-24T01:47:03;2.78;;;0.70;;
78426;SDS011;67722;50.204;8.570;2023-04-24T01:49:29;5.93;;;0.68;;
78426;SDS011;67722;50.204;8.570;2023-04-24T01:51:54;3.22;;;0.73;;
78426;SDS011;67722;50.204;8.570;2023-04-24T01:54:19;1.83;;;0.82;;
78426;SDS011;67722;50.204;8.570;2023-04-24T01:56:45;3.60;;;0.80;;
78426;SDS011;67722;50.204;8.570;2023-04-24T01:59:10;3.10;;;0.70;;
78426;SDS011;67722;50.204;8.570;2023-04-24T02:01:36;1.20;;;0.63;;
78426;SDS011;67722;50.204;8.570;2023-04-24T02:04:02;2.53;;;0.63;;
78426;SDS011;67722;50.204;8.570;2023-04-24T02:06:28;0.98;;;0.60;;
78426;SDS011;67722;50.204;8.570;2023-04-24T02:08:53;3.05;;;0.70;;
78426;SDS011;67722;50.204;8.570;2023-04-24T02:11:19;1.33;;;0.70;;
78426;SDS011;67722;50.204;8.570;2023-04-24T02:13:44;2.33;;;0.60;;
78426;SDS011;67722;50.204;8.570;2023-04-24T02:16:10;1.83;;;0.60;;
78426;SDS011;67722;50.204;8.570;2023-04-24T02:18:35;1.63;;;0.73;;
78426;SDS011;67722;50.204;8.570;2023-04-24T02:21:00;2.15;;;1.10;;
78426;SDS011;67722;50.204;8.570;2023-04-24T02:23:26;2.73;;;0.90;;
78426;SDS011;67722;50.204;8.570;2023-04-24T02:25:52;2.08;;;0.98;;
78426;SDS011;67722;50.204;8.570;2023-04-24T02:28:18;1.70;;;0.95;;
78426;SDS011;67722;50.204;8.570;2023-04-24T02:30:43;2.03;;;0.73;;
78426;SDS011;67722;50.204;8.570;2023-04-24T02:33:09;4.40;;;1.37;;
78426;SDS011;67722;50.204;8.570;2023-04-24T02:35:34;4.13;;;1.00;;
78426;SDS011;67722;50.204;8.570;2023-04-24T02:38:00;5.50;;;1.27;;
78426;SDS011;67722;50.204;8.570;2023-04-24T02:40:25;2.33;;;1.33;;
78426;SDS011;67722;50.204;8.570;2023-04-24T02:42:50;1.85;;;0.98;;
78426;SDS011;67722;50.204;8.570;2023-04-24T02:45:16;2.60;;;1.10;;
78426;SDS011;67722;50.204;8.570;2023-04-24T02:47:41;2.33;;;1.10;;
78426;SDS011;67722;50.204;8.570;2023-04-24T02:50:06;4.23;;;1.40;;
78426;SDS011;67722;50.204;8.570;2023-04-24T02:52:32;2.55;;;1.02;;
78426;SDS011;67722;50.204;8.570;2023-04-24T02:54:57;2.73;;;1.30;;
78426;SDS011;67722;50.204;8.570;2023-04-24T02:57:23;5.10;;;1.13;;
78426;SDS011;67722;50.204;8.570;2023-04-24T02:59:48;4.60;;;0.97;;
78426;SDS011;67722;50.204;8.570;2023-04-24T03:02:13;2.13;;;1.00;;
78426;SDS011;67722;50.204;8.570;2023-04-24T03:04:39;6.37;;;1.33;;
78426;SDS011;67722;50.204;8.570;2023-04-24T03:07:05;3.65;;;1.20;;
78426;SDS011;67722;50.204;8.570;2023-04-24T03:09:30;1.38;;;1.08;;
78426;SDS011;67722;50.204;8.570;2023-04-24T03:11:55;1.85;;;1.08;;
78426;SDS011;67722;50.204;8.570;2023-04-24T03:14:23;2.20;;;0.95;;
78426;SDS011;67722;50.204;8.570;2023-04-24T03:16:48;1.07;;;0.80;;
78426;SDS011;67722;50.204;8.570;2023-04-24T03:19:13;1.47;;;0.73;;
78426;SDS011;67722;50.204;8.570;2023-04-24T03:21:39;2.03;;;0.70;;
78426;SDS011;67722;50.204;8.570;2023-04-24T03:24:06;1.92;;;0.93;;
78426;SDS011;67722;50.204;8.570;2023-04-24T03:26:32;0.93;;;0.60;;
78426;SDS011;67722;50.204;8.570;2023-04-24T03:28:57;3.13;;;0.57;;
78426;SDS011;67722;50.204;8.570;2023-04-24T03:31:22;3.00;;;1.20;;
78426;SDS011;67722;50.204;8.570;2023-04-24T03:33:48;2.45;;;0.60;;
78426;SDS011;67722;50.204;8.570;2023-04-24T03:36:13;2.08;;;0.75;;
78426;SDS011;67722;50.204;8.570;2023-04-24T03:38:39;4.10;;;0.90;;
78426;SDS011;67722;50.204;8.570;2023-04-24T03:41:04;1.90;;;0.75;;
78426;SDS011;67722;50.204;8.570;2023-04-24T03:43:29;1.27;;;0.80;;
78426;SDS011;67722;50.204;8.570;2023-04-24T03:45:55;2.03;;;1.20;;
78426;SDS011;67722;50.204;8.570;2023-04-24T03:48:20;2.08;;;0.70;;
78426;SDS011;67722;50.204;8.570;2023-04-24T03:50:46;2.37;;;1.20;;
78426;SDS011;67722;50.204;8.570;2023-04-24T03:53:11;2.50;;;1.13;;
78426;SDS011;67722;50.204;8.570;2023-04-24T03:55:36;3.93;;;1.00;;
78426;SDS011;67722;50.204;8.570;2023-04-24T03:58:02;4.00;;;1.13;;
78426;SDS011;67722;50.204;8.570;2023-04-24T04:00:27;1.10;;;0.77;;
78426;SDS011;67722;50.204;8.570;2023-04-24T04:02:52;3.03;;;1.20;;
78426;SDS011;67722;50.204;8.570;2023-04-24T04:05:18;2.40;;;0.90;;
78426;SDS011;67722;50.204;8.570;2023-04-24T04:07:43;1.53;;;0.97;;
78426;SDS011;67722;50.204;8.570;2023-04-24T04:10:08;1.33;;;0.80;;
78426;SDS011;67722;50.204;8.570;2023-04-24T04:12:34;1.75;;;0.90;;
78426;SDS011;67722;50.204;8.570;2023-04-24T04:14:59;1.60;;;1.10;;
78426;SDS011;67722;50.204;8.570;2023-04-24T04:17:25;1.77;;;0.80;;
78426;SDS011;67722;50.204;8.570;2023-04-24T04:19:50;1.80;;;1.08;;
78426;SDS011;67722;50.204;8.570;2023-04-24T04:22:15;1.37;;;0.87;;
78426;SDS011;67722;50.204;8.570;2023-04-24T04:24:41;1.77;;;1.07;;
78426;SDS011;67722;50.204;8.570;2023-04-24T04:27:06;2.17;;;0.90;;
78426;SDS011;67722;50.204;8.570;2023-04-24T04:29:33;1.73;;;0.82;;
78426;SDS011;67722;50.204;8.570;2023-04-24T04:31:59;2.60;;;0.77;;
78426;SDS011;67722;50.204;8.570;2023-04-24T04:34:25;1.10;;;0.63;;
78426;SDS011;67722;50.204;8.570;2023-04-24T04:36:50;2.07;;;1.00;;
78426;SDS011;67722;50.204;8.570;2023-04-24T04:39:15;1.10;;;0.60;;
78426;SDS011;67722;50.204;8.570;2023-04-24T04:41:43;2.67;;;1.00;;
78426;SDS011;67722;50.204;8.570;2023-04-24T04:44:09;1.10;;;0.80;;
78426;SDS011;67722;50.204;8.570;2023-04-24T04:46:34;1.45;;;0.80;;
78426;SDS011;67722;50.204;8.570;2023-04-24T04:49:02;1.42;;;0.90;;
78426;SDS011;67722;50.204;8.570;2023-04-24T04:51:27;1.27;;;0.55;;
78426;SDS011;67722;50.204;8.570;2023-04-24T04:53:53;1.20;;;0.93;;
78426;SDS011;67722;50.204;8.570;2023-04-24T04:56:18;1.35;;;0.90;;
78426;SDS011;67722;50.204;8.570;2023-04-24T04:58:44;1.10;;;0.73;;
78426;SDS011;67722;50.204;8.570;2023-04-24T05:01:09;3.03;;;0.53;;
78426;SDS011;67722;50.204;8.570;2023-04-24T05:03:35;1.90;;;0.63;;
78426;SDS011;67722;50.204;8.570;2023-04-24T05:06:00;1.92;;;0.40;;
78426;SDS011;67722;50.204;8.570;2023-04-24T05:08:26;1.38;;;1.08;;
78426;SDS011;67722;50.204;8.570;2023-04-24T05:10:51;1.70;;;0.80;;
78426;SDS011;67722;50.204;8.570;2023-04-24T05:13:17;0.93;;;0.60;;
78426;SDS011;67722;50.204;8.570;2023-04-24T05:15:42;3.03;;;0.80;;
78426;SDS011;67722;50.204;8.570;2023-04-24T05:18:07;1.37;;;0.83;;
78426;SDS011;67722;50.204;8.570;2023-04-24T05:20:33;0.85;;;0.52;;
78426;SDS011;67722;50.204;8.570;2023-04-24T05:22:58;1.70;;;0.60;;
78426;SDS011;67722;50.204;8.570;2023-04-24T05:25:23;2.97;;;0.70;;
78426;SDS011;67722;50.204;8.570;2023-04-24T05:27:49;1.35;;;0.75;;
78426;SDS011;67722;50.204;8.570;2023-04-24T05:30:14;1.10;;;0.88;;
78426;SDS011;67722;50.204;8.570;2023-04-24T05:32:40;1.48;;;0.80;;
78426;SDS011;67722;50.204;8.570;2023-04-24T05:35:05;1.40;;;0.83;;
78426;SDS011;67722;50.204;8.570;2023-04-24T05:37:31;1.30;;;0.68;;
78426;SDS011;67722;50.204;8.570;2023-04-24T05:39:56;1.53;;;0.90;;
78426;SDS011;67722;50.204;8.570;2023-04-24T05:42:22;4.90;;;0.97;;
78426;SDS011;67722;50.204;8.570;2023-04-24T05:44:47;2.05;;;0.93;;
78426;SDS011;67722;50.204;8.570;2023-04-24T05:47:12;3.13;;;0.75;;
78426;SDS011;67722;50.204;8.570;2023-04-24T05:49:38;2.13;;;0.83;;
78426;SDS011;67722;50.204;8.570;2023-04-24T05:52:03;2.20;;;0.80;;
78426;SDS011;67722;50.204;8.570;2023-04-24T05:54:30;3.25;;;0.90;;
78426;SDS011;67722;50.204;8.570;2023-04-24T05:56:55;1.47;;;1.23;;
78426;SDS011;67722;50.204;8.570;2023-04-24T05:59:21;2.05;;;0.80;;
78426;SDS011;67722;50.204;8.570;2023-04-24T06:01:46;2.17;;;1.45;;
78426;SDS011;67722;50.204;8.570;2023-04-24T06:04:12;4.33;;;1.53;;
78426;SDS011;67722;50.204;8.570;2023-04-24T06:06:38;2.67;;;1.30;;
78426;SDS011;67722;50.204;8.570;2023-04-24T06:09:03;2.10;;;1.27;;
78426;SDS011;67722;50.204;8.570;2023-04-24T06:11:29;3.35;;;1.17;;
78426;SDS011;67722;50.204;8.570;2023-04-24T06:13:55;2.30;;;1.60;;
78426;SDS011;67722;50.204;8.570;2023-04-24T06:16:20;3.25;;;1.30;;
78426;SDS011;67722;50.204;8.570;2023-04-24T06:18:45;1.73;;;1.07;;
78426;SDS011;67722;50.204;8.570;2023-04-24T06:21:12;3.90;;;1.38;;
78426;SDS011;67722;50.204;8.570;2023-04-24T06:23:37;2.78;;;1.73;;
78426;SDS011;67722;50.204;8.570;2023-04-24T06:26:02;2.80;;;1.90;;
78426;SDS011;67722;50.204;8.570;2023-04-24T06:28:28;3.03;;;1.87;;
78426;SDS011;67722;50.204;8.570;2023-04-24T06:30:53;2.63;;;1.80;;
78426;SDS011;67722;50.204;8.570;2023-04-24T06:33:18;5.72;;;2.00;;
78426;SDS011;67722;50.204;8.570;2023-04-24T06:35:44;2.10;;;1.33;;
78426;SDS011;67722;50.204;8.570;2023-04-24T06:38:09;4.93;;;2.58;;
78426;SDS011;67722;50.204;8.570;2023-04-24T06:40:35;3.10;;;2.07;;
78426;SDS011;67722;50.204;8.570;2023-04-24T06:43:00;2.67;;;2.10;;
78426;SDS011;67722;50.204;8.570;2023-04-24T06:45:27;2.35;;;1.52;;
78426;SDS011;67722;50.204;8.570;2023-04-24T06:47:53;3.17;;;1.92;;
78426;SDS011;67722;50.204;8.570;2023-04-24T06:50:18;3.80;;;1.80;;
78426;SDS011;67722;50.204;8.570;2023-04-24T06:52:44;4.63;;;2.00;;
78426;SDS011;67722;50.204;8.570;2023-04-24T06:55:09;3.42;;;1.65;;
78426;SDS011;67722;50.204;8.570;2023-04-24T06:57:36;2.75;;;1.92;;
78426;SDS011;67722;50.204;8.570;2023-04-24T07:00:02;3.67;;;2.03;;
78426;SDS011;67722;50.204;8.570;2023-04-24T07:02:28;2.95;;;1.80;;
78426;SDS011;67722;50.204;8.570;2023-04-24T07:04:53;2.37;;;1.53;;
78426;SDS011;67722;50.204;8.570;2023-04-24T07:07:19;2.87;;;2.27;;
78426;SDS011;67722;50.204;8.570;2023-04-24T07:09:44;3.30;;;1.80;;
78426;SDS011;67722;50.204;8.570;2023-04-24T07:12:10;4.05;;;1.90;;
78426;SDS011;67722;50.204;8.570;2023-04-24T07:14:36;3.45;;;2.00;;
78426;SDS011;67722;50.204;8.570;2023-04-24T07:17:02;4.95;;;2.10;;
78426;SDS011;67722;50.204;8.570;2023-04-24T07:19:31;4.32;;;2.15;;
78426;SDS011;67722;50.204;8.570;2023-04-24T07:21:57;2.72;;;1.50;;
78426;SDS011;67722;50.204;8.570;2023-04-24T07:24:23;2.58;;;1.52;;
78426;SDS011;67722;50.204;8.570;2023-04-24T07:26:50;1.80;;;1.35;;
78426;SDS011;67722;50.204;8.570;2023-04-24T07:29:16;4.05;;;1.50;;
78426;SDS011;67722;50.204;8.570;2023-04-24T07:31:42;1.83;;;1.30;;
78426;SDS011;67722;50.204;8.570;2023-04-24T07:34:07;1.95;;;1.30;;
78426;SDS011;67722;50.204;8.570;2023-04-24T07:36:32;1.60;;;1.25;;
78426;SDS011;67722;50.204;8.570;2023-04-24T07:38:58;3.22;;;1.52;;
78426;SDS011;67722;50.204;8.570;2023-04-24T07:41:23;1.73;;;1.50;;
78426;SDS011;67722;50.204;8.570;2023-04-24T07:43:49;2.40;;;1.30;;
78426;SDS011;67722;50.204;8.570;2023-04-24T07:46:14;2.47;;;1.17;;
78426;SDS011;67722;50.204;8.570;2023-04-24T07:48:40;2.30;;;1.63;;
78426;SDS011;67722;50.204;8.570;2023-04-24T07:51:05;1.70;;;1.03;;
78426;SDS011;67722;50.204;8.570;2023-04-24T07:53:30;1.98;;;1.38;;
78426;SDS011;67722;50.204;8.570;2023-04-24T07:55:56;2.23;;;1.30;;
78426;SDS011;67722;50.204;8.570;2023-04-24T07:58:21;1.88;;;1.13;;
78426;SDS011;67722;50.204;8.570;2023-04-24T08:00:47;1.77;;;1.42;;
78426;SDS011;67722;50.204;8.570;2023-04-24T08:03:12;3.63;;;1.90;;
78426;SDS011;67722;50.204;8.570;2023-04-24T08:05:38;2.13;;;1.50;;
78426;SDS011;67722;50.204;8.570;2023-04-24T08:08:04;1.25;;;0.85;;
78426;SDS011;67722;50.204;8.570;2023-04-24T08:10:29;2.40;;;1.50;;
78426;SDS011;67722;50.204;8.570;2023-04-24T08:12:55;1.80;;;1.05;;
78426;SDS011;67722;50.204;8.570;2023-04-24T08:15:20;2.05;;;1.52;;
78426;SDS011;67722;50.204;8.570;2023-04-24T08:17:46;2.70;;;1.50;;
78426;SDS011;67722;50.204;8.570;2023-04-24T08:20:11;5.20;;;1.70;;
78426;SDS011;67722;50.204;8.570;2023-04-24T08:22:40;1.92;;;1.50;;
78426;SDS011;67722;50.204;8.570;2023-04-24T08:25:06;3.08;;;2.08;;
78426;SDS011;67722;50.204;8.570;2023-04-24T08:27:32;1.67;;;1.25;;
78426;SDS011;67722;50.204;8.570;2023-04-24T08:29:57;1.42;;;0.90;;
78426;SDS011;67722;50.204;8.570;2023-04-24T08:32:26;1.63;;;1.15;;
78426;SDS011;67722;50.204;8.570;2023-04-24T08:34:54;3.00;;;1.40;;
78426;SDS011;67722;50.204;8.570;2023-04-24T08:37:21;1.98;;;1.15;;
78426;SDS011;67722;50.204;8.570;2023-04-24T08:39:47;2.13;;;1.13;;
78426;SDS011;67722;50.204;8.570;2023-04-24T08:42:13;2.13;;;1.58;;
78426;SDS011;67722;50.204;8.570;2023-04-24T08:44:39;2.65;;;1.50;;
78426;SDS011;67722;50.204;8.570;2023-04-24T08:47:05;2.33;;;1.27;;
78426;SDS011;67722;50.204;8.570;2023-04-24T08:49:33;2.05;;;1.33;;
78426;SDS011;67722;50.204;8.570;2023-04-24T08:51:59;2.58;;;1.45;;
78426;SDS011;67722;50.204;8.570;2023-04-24T08:54:25;2.05;;;1.40;;
78426;SDS011;67722;50.204;8.570;2023-04-24T08:56:50;2.87;;;1.17;;
78426;SDS011;67722;50.204;8.570;2023-04-24T08:59:19;3.17;;;1.50;;
78426;SDS011;67722;50.204;8.570;2023-04-24T09:01:46;1.70;;;1.30;;
78426;SDS011;67722;50.204;8.570;2023-04-24T09:04:13;1.92;;;1.00;;
78426;SDS011;67722;50.204;8.570;2023-04-24T09:06:40;3.10;;;1.30;;
78426;SDS011;67722;50.204;8.570;2023-04-24T09:09:05;2.03;;;1.10;;
78426;SDS011;67722;50.204;8.570;2023-04-24T09:11:31;2.60;;;1.27;;
78426;SDS011;67722;50.204;8.570;2023-04-24T09:13:59;3.45;;;1.52;;
78426;SDS011;67722;50.204;8.570;2023-04-24T09:16:26;2.47;;;1.30;;
78426;SDS011;67722;50.204;8.570;2023-04-24T09:18:51;2.08;;;1.52;;
78426;SDS011;67722;50.204;8.570;2023-04-24T09:21:17;3.10;;;1.67;;
78426;SDS011;67722;50.204;8.570;2023-04-24T09:23:42;2.13;;;1.40;;
78426;SDS011;67722;50.204;8.570;2023-04-24T09:26:09;2.47;;;1.35;;
78426;SDS011;67722;50.204;8.570;2023-04-24T09:28:38;2.25;;;1.00;;
78426;SDS011;67722;50.204;8.570;2023-04-24T09:31:14;1.85;;;1.20;;
78426;SDS011;67722;50.204;8.570;2023-04-24T09:36:31;2.15;;;1.13;;
78426;SDS011;67722;50.204;8.570;2023-04-24T09:39:01;1.75;;;1.10;;
78426;SDS011;67722;50.204;8.570;2023-04-24T09:41:27;1.63;;;0.80;;
78426;SDS011;67722;50.204;8.570;2023-04-24T09:43:56;1.95;;;1.23;;
78426;SDS011;67722;50.204;8.570;2023-04-24T09:46:28;2.67;;;1.35;;
78426;SDS011;67722;50.204;8.570;2023-04-24T09:48:54;2.70;;;1.27;;
78426;SDS011;67722;50.204;8.570;2023-04-24T09:51:19;3.85;;;1.08;;
78426;SDS011;67722;50.204;8.570;2023-04-24T09:53:58;2.00;;;1.38;;
78426;SDS011;67722;50.204;8.570;2023-04-24T09:56:24;2.58;;;0.95;;
78426;SDS011;67722;50.204;8.570;2023-04-24T09:58:50;2.38;;;1.10;;
78426;SDS011;67722;50.204;8.570;2023-04-24T10:01:16;1.88;;;1.00;;
78426;SDS011;67722;50.204;8.570;2023-04-24T10:03:41;1.83;;;1.27;;
78426;SDS011;67722;50.204;8.570;2023-04-24T10:06:07;1.75;;;1.25;;
78426;SDS011;67722;50.204;8.570;2023-04-24T10:08:35;2.22;;;0.90;;
78426;SDS011;67722;50.204;8.570;2023-04-24T10:11:02;2.72;;;1.23;;
78426;SDS011;67722;50.204;8.570;2023-04-24T10:13:28;1.50;;;1.10;;
78426;SDS011;67722;50.204;8.570;2023-04-24T10:15:53;1.25;;;0.75;;
78426;SDS011;67722;50.204;8.570;2023-04-24T10:18:20;1.63;;;1.02;;
78426;SDS011;67722;50.204;8.570;2023-04-24T10:20:46;1.60;;;1.05;;
78426;SDS011;67722;50.204;8.570;2023-04-24T10:23:11;1.60;;;1.05;;
78426;SDS011;67722;50.204;8.570;2023-04-24T10:25:37;2.90;;;0.90;;
78426;SDS011;67722;50.204;8.570;2023-04-24T10:28:03;2.77;;;1.20;;
78426;SDS011;67722;50.204;8.570;2023-04-24T10:30:30;2.22;;;1.33;;
78426;SDS011;67722;50.204;8.570;2023-04-24T10:32:59;2.65;;;1.60;;
78426;SDS011;67722;50.204;8.570;2023-04-24T10:35:25;2.08;;;1.20;;
78426;SDS011;67722;50.204;8.570;2023-04-24T10:37:56;3.17;;;1.50;;
78426;SDS011;67722;50.204;8.570;2023-04-24T10:40:30;3.03;;;1.35;;
78426;SDS011;67722;50.204;8.570;2023-04-24T10:42:58;2.67;;;1.45;;
78426;SDS011;67722;50.204;8.570;2023-04-24T10:45:23;1.55;;;1.20;;
78426;SDS011;67722;50.204;8.570;2023-04-24T10:48:03;2.47;;;1.50;;
78426;SDS011;67722;50.204;8.570;2023-04-24T10:53:15;2.45;;;1.65;;
78426;SDS011;67722;50.204;8.570;2023-04-24T11:03:58;1.48;;;0.80;;
78426;SDS011;67722;50.204;8.570;2023-04-24T11:06:28;1.33;;;0.88;;
78426;SDS011;67722;50.204;8.570;2023-04-24T11:09:08;1.35;;;0.68;;
78426;SDS011;67722;50.204;8.570;2023-04-24T11:11:35;3.10;;;0.82;;
78426;SDS011;67722;50.204;8.570;2023-04-24T11:14:03;2.17;;;0.88;;
78426;SDS011;67722;50.204;8.570;2023-04-24T11:16:31;1.33;;;0.63;;
78426;SDS011;67722;50.204;8.570;2023-04-24T11:19:04;1.00;;;0.68;;
78426;SDS011;67722;50.204;8.570;2023-04-24T11:21:32;2.33;;;0.70;;
78426;SDS011;67722;50.204;8.570;2023-04-24T11:26:52;1.92;;;0.70;;
78426;SDS011;67722;50.204;8.570;2023-04-24T11:29:19;1.73;;;0.95;;
78426;SDS011;67722;50.204;8.570;2023-04-24T11:31:45;1.00;;;0.60;;
78426;SDS011;67722;50.204;8.570;2023-04-24T11:34:15;1.17;;;0.60;;
78426;SDS011;67722;50.204;8.570;2023-04-24T11:36:44;1.20;;;0.70;;
78426;SDS011;67722;50.204;8.570;2023-04-24T11:39:10;0.80;;;0.38;;
78426;SDS011;67722;50.204;8.570;2023-04-24T11:41:36;0.93;;;0.52;;
78426;SDS011;67722;50.204;8.570;2023-04-24T11:44:02;1.42;;;0.73;;
78426;SDS011;67722;50.204;8.570;2023-04-24T11:46:29;0.80;;;0.50;;
78426;SDS011;67722;50.204;8.570;2023-04-24T11:48:56;1.58;;;1.00;;
78426;SDS011;67722;50.204;8.570;2023-04-24T11:51:22;1.10;;;0.60;;
78426;SDS011;67722;50.204;8.570;2023-04-24T11:53:50;2.13;;;1.00;;
78426;SDS011;67722;50.204;8.570;2023-04-24T11:56:19;1.70;;;0.63;;
78426;SDS011;67722;50.204;8.570;2023-04-24T11:58:46;3.05;;;0.90;;
78426;SDS011;67722;50.204;8.570;2023-04-24T12:01:12;0.95;;;0.60;;
78426;SDS011;67722;50.204;8.570;2023-04-24T12:03:38;3.30;;;1.20;;
78426;SDS011;67722;50.204;8.570;2023-04-24T12:06:06;1.10;;;0.82;;
78426;SDS011;67722;50.204;8.570;2023-04-24T12:08:32;2.08;;;1.15;;
78426;SDS011;67722;50.204;8.570;2023-04-24T12:10:59;5.03;;;1.40;;
78426;SDS011;67722;50.204;8.570;2023-04-24T12:13:26;1.05;;;0.85;;
78426;SDS011;67722;50.204;8.570;2023-04-24T12:15:51;1.42;;;1.00;;
78426;SDS011;67722;50.204;8.570;2023-04-24T12:18:16;1.63;;;1.17;;
78426;SDS011;67722;50.204;8.570;2023-04-24T12:20:42;1.77;;;0.97;;
78426;SDS011;67722;50.204;8.570;2023-04-24T12:23:07;1.65;;;1.27;;
78426;SDS011;67722;50.204;8.570;2023-04-24T12:25:33;1.10;;;0.77;;
78426;SDS011;67722;50.204;8.570;2023-04-24T12:30:28;2.28;;;0.80;;
78426;SDS011;67722;50.204;8.570;2023-04-24T12:32:54;2.90;;;1.17;;
78426;SDS011;67722;50.204;8.570;2023-04-24T12:35:20;1.33;;;1.00;;
78426;SDS011;67722;50.204;8.570;2023-04-24T12:37:46;2.85;;;1.27;;
78426;SDS011;67722;50.204;8.570;2023-04-24T12:40:12;2.63;;;1.02;;
78426;SDS011;67722;50.204;8.570;2023-04-24T12:42:42;1.80;;;1.10;;
78426;SDS011;67722;50.204;8.570;2023-04-24T12:45:09;1.88;;;1.17;;
78426;SDS011;67722;50.204;8.570;2023-04-24T12:47:37;2.75;;;1.52;;
78426;SDS011;67722;50.204;8.570;2023-04-24T12:50:03;2.47;;;1.33;;
78426;SDS011;67722;50.204;8.570;2023-04-24T12:52:29;2.20;;;1.50;;
78426;SDS011;67722;50.204;8.570;2023-04-24T12:54:55;2.63;;;1.50;;
78426;SDS011;67722;50.204;8.570;2023-04-24T12:57:22;2.40;;;1.48;;
78426;SDS011;67722;50.204;8.570;2023-04-24T12:59:48;2.55;;;1.65;;
78426;SDS011;67722;50.204;8.570;2023-04-24T13:02:14;4.15;;;1.80;;
78426;SDS011;67722;50.204;8.570;2023-04-24T13:04:43;2.50;;;1.42;;
78426;SDS011;67722;50.204;8.570;2023-04-24T13:07:09;2.50;;;1.45;;
78426;SDS011;67722;50.204;8.570;2023-04-24T13:09:35;1.93;;;1.63;;
78426;SDS011;67722;50.204;8.570;2023-04-24T13:12:00;3.40;;;1.77;;
78426;SDS011;67722;50.204;8.570;2023-04-24T13:14:26;3.20;;;1.60;;
78426;SDS011;67722;50.204;8.570;2023-04-24T13:16:52;2.38;;;1.58;;
78426;SDS011;67722;50.204;8.570;2023-04-24T13:19:17;2.33;;;1.57;;
78426;SDS011;67722;50.204;8.570;2023-04-24T13:21:43;2.88;;;1.90;;
78426;SDS011;67722;50.204;8.570;2023-04-24T13:24:08;4.00;;;1.70;;
78426;SDS011;67722;50.204;8.570;2023-04-24T13:26:34;3.83;;;1.52;;
78426;SDS011;67722;50.204;8.570;2023-04-24T13:29:00;4.20;;;1.93;;
78426;SDS011;67722;50.204;8.570;2023-04-24T13:31:25;3.63;;;1.73;;
78426;SDS011;67722;50.204;8.570;2023-04-24T13:33:50;3.88;;;2.20;;
78426;SDS011;67722;50.204;8.570;2023-04-24T13:36:16;2.80;;;1.58;;
78426;SDS011;67722;50.204;8.570;2023-04-24T13:38:42;4.13;;;1.80;;
78426;SDS011;67722;50.204;8.570;2023-04-24T13:41:08;4.78;;;2.60;;
78426;SDS011;67722;50.204;8.570;2023-04-24T13:43:33;5.23;;;1.60;;
78426;SDS011;67722;50.204;8.570;2023-04-24T13:45:59;3.75;;;1.92;;
78426;SDS011;67722;50.204;8.570;2023-04-24T13:48:27;3.40;;;2.00;;
78426;SDS011;67722;50.204;8.570;2023-04-24T13:50:52;4.93;;;2.07;;
78426;SDS011;67722;50.204;8.570;2023-04-24T13:53:17;3.50;;;2.23;;
78426;SDS011;67722;50.204;8.570;2023-04-24T13:55:43;3.90;;;2.55;;
78426;SDS011;67722;50.204;8.570;2023-04-24T13:58:08;3.45;;;1.67;;
78426;SDS011;67722;50.204;8.570;2023-04-24T14:00:34;3.22;;;2.38;;
78426;SDS011;67722;50.204;8.570;2023-04-24T14:02:59;4.00;;;2.70;;
78426;SDS011;67722;50.204;8.570;2023-04-24T14:05:24;3.13;;;1.98;;
78426;SDS011;67722;50.204;8.570;2023-04-24T14:07:50;3.67;;;2.22;;
78426;SDS011;67722;50.204;8.570;2023-04-24T14:10:15;3.28;;;1.75;;
78426;SDS011;67722;50.204;8.570;2023-04-24T14:12:41;5.63;;;2.20;;
78426;SDS011;67722;50.204;8.570;2023-04-24T14:15:06;4.28;;;2.47;;
78426;SDS011;67722;50.204;8.570;2023-04-24T14:17:33;3.08;;;1.85;;
78426;SDS011;67722;50.204;8.570;2023-04-24T14:19:58;3.67;;;2.23;;
78426;SDS011;67722;50.204;8.570;2023-04-24T14:22:25;3.33;;;1.95;;
78426;SDS011;67722;50.204;8.570;2023-04-24T14:24:50;4.80;;;2.00;;
78426;SDS011;67722;50.204;8.570;2023-04-24T14:27:16;2.23;;;1.70;;
78426;SDS011;67722;50.204;8.570;2023-04-24T14:29:41;5.25;;;1.70;;
78426;SDS011;67722;50.204;8.570;2023-04-24T14:32:06;5.30;;;2.10;;
78426;SDS011;67722;50.204;8.570;2023-04-24T14:34:33;4.28;;;2.13;;
78426;SDS011;67722;50.204;8.570;2023-04-24T14:36:59;4.45;;;1.80;;
78426;SDS011;67722;50.204;8.570;2023-04-24T14:39:25;3.40;;;1.70;;
78426;SDS011;67722;50.204;8.570;2023-04-24T14:41:50;3.27;;;1.50;;
78426;SDS011;67722;50.204;8.570;2023-04-24T14:44:15;4.47;;;1.63;;
78426;SDS011;67722;50.204;8.570;2023-04-24T14:46:41;3.63;;;1.98;;
78426;SDS011;67722;50.204;8.570;2023-04-24T14:49:07;3.97;;;1.83;;
78426;SDS011;67722;50.204;8.570;2023-04-24T14:51:34;2.95;;;2.38;;
78426;SDS011;67722;50.204;8.570;2023-04-24T14:54:02;3.90;;;1.83;;
78426;SDS011;67722;50.204;8.570;2023-04-24T14:56:28;4.22;;;1.67;;
78426;SDS011;67722;50.204;8.570;2023-04-24T14:58:53;4.13;;;2.00;;